Aviation Digital Data Service (ADDS)

Output produced by METARs form (1812 UTC 14 August 2018)
found at http://www.aviationweather.gov/adds/metars/
 
KBWI 141754Z 29011KT 10SM SCT038 SCT120 SCT160 BKN250 27/18 A2991 RMK AO2 SLP127 T02720183 10278 20206 58010
KBWI 141720Z 1418/1524 27008KT P6SM VCTS SCT045CB BKN200 
     FM150000 29007KT P6SM SCT060 BKN080 
     FM150700 28006KT P6SM FEW090 SCT250
       
KMTN 141745Z 24009KT 190V250 10SM BKN036 BKN060 BKN150 28/21 A2992
KMTN 141720Z 1418/1518 25008KT P6SM VCTS SCT045CB BKN080 
     FM150000 28007KT P6SM SCT060 BKN080 
     FM150800 28005KT P6SM FEW090 SCT200
       
KCGE 141750Z AUTO 29008G14KT 10SM CLR 27/19 A2993 RMK A01
KADW 141756Z AUTO 26009KT 10SM SCT044 29/17 A2993 RMK AO2 SLP140 T02860174 10287 20215 $
TAF KADW 141700Z 1417/1523 27012KT 9999 SCT020 BKN200 QNH2989INS 
     BECMG 1421/1422 29012G18KT 9000 -SHRA BKN040 QNH2991INS 
     BECMG 1504/1505 28012KT 9999 NSW FEW050 BKN100 QNH2994INS 
     BECMG 1514/1515 31012KT 9999 FEW050 QNH2999INS TX30/1420Z TN20/1510Z
       
KCBE 141753Z AUTO 30005KT 10SM BKN070 BKN080 26/17 A3002 RMK AO1
KFME 141754Z AUTO 27008KT 10SM SCT042 27/19 A2995 RMK AO1
KFDK 141748Z 26007KT 10SM BKN035 27/17 A2997
KGAI 141756Z AUTO 31010KT 10SM SCT035 26/19 A2996 RMK AO2 SLP166 T02610189 10261 20194 57009
KHGR 141753Z VRB06KT 10SM FEW030 SCT037 BKN050 27/18 A2994 RMK AO2 SLP144 60000 T02670183 10267 20194 58011
K2W6 141754Z AUTO 26012KT CLR 27/18 A2996 RMK AO1
K2G4 141800Z AUTO 26004KT 5SM SCT011 SCT019 BKN038 17/16 A3008 RMK AO1
KOXB 141753Z AUTO 24011KT 10SM CLR 29/19 A2993 RMK AO2 SLP134 T02890189 10289 20228 58007
KSBY 141754Z 24010G17KT 10SM FEW037 28/19 A2993 RMK AO2 SLP137 T02830194 10283 20217 58006
KSBY 141753Z 1418/1518 26010KT P6SM SCT040 
     FM150000 23006KT P6SM VCSH BKN070 
     FM150600 VRB03KT P6SM BKN080 
     FM151100 28008KT P6SM SKC
       
KW29 141755Z AUTO 25008KT 10SM CLR 29/19 A2992 RMK AO2
KDMW 141750Z AUTO 29010KT 10SM SCT029 SCT039 26/16 A2994 RMK AO2 LTG DSNT S